Mesita, Colorado
Current Conditions -  °F | °C
As of 9:52 PM on Saturday 25 Oct 2014 (Local Time) from KALS Reporting Station
Clear Clear  
Wind Chill: 45°   Ceiling: Unl
Heat Index: 49°   Visibility: 10mi
Dew Point: 24°   Wind: 8mph
Humidity: 38%   Direction: 240°WSW
Pressure: 30.25"   Gusts: NA
Location:  37.0838°N, 105.58°W
Report Text: KALS 260352Z AUTO 24007KT 10SM CLR 09/M04 A3025 RMK AO2 SLP191 T00941044
Loading
Personal Weather Stations






























Interactive Weather Map
Tropical Storm Tracking
New forecast layout! Learn more

10-Day Weather Forecast

Advertisements
Track Severe Weather on mobile